Hlavní strana
METAR-TAF:

METAR-TAF

Letiště :

Laurinburg-Maxton Airport

Maxton, Severní Karolína, Spojené státy americké

zeměpisná šířka: 34-47-29N, zeměpisná délka: 079-22-05W, výška: 67 m

Aktuální stav počasí

Zpráva byla vytvořena před 32 minutami, v 09:09 UTC
Jihojihozápadní vítr 10 kt
Teplota 26°C
Vlhkost vzduchu 84%
Tlak 1018 hPa
Viditelnost: 11.3 km
Polojasno ve výšce 500 ft
Oblačno až skoro zataženo ve výšce 1100 ft
Zataženo ve výšce 2700 ft
bouřka, slabý déšť

METAR: KMEB 070909Z AUTO 20010KT 7SM -TSRA SCT005 BKN011 OVC027 26/23 A3007 RMK AO2 TSB04 P0001 T02560233

Čas: 05:41 (09:41 UTC)


TAF: chybějící

Stav a předpovědi počasí z více než 4 000 letišť (zprávy METAR a TAF).

Červené a žluté tečky na mapě představují dostupné meteorologické stanice.

Když kurzor umístíte na tečku, zobrazí se název stanice.

Pak kliknutím zobrazíte stav a předpověď počasí.

Chcete-li změnit mapu, kliknutím na zelené tlačítko se znaménkem +mapu přiblížíte, kliknutím na zelené tlačítko se znaménkem – mapu oddálíte a kliknutím na zelené šipky přejdete na sousední mapy.


METAR-TAF: